sensor_id;sensor_type;location;lat;lon;timestamp;temperature;humidity
42755;DHT22;28407;51.830;5.684;2024-01-16T00:01:02;2.70;89.20
42755;DHT22;28407;51.830;5.684;2024-01-16T00:03:02;2.70;89.10
42755;DHT22;28407;51.830;5.684;2024-01-16T00:05:03;2.70;89.20
42755;DHT22;28407;51.830;5.684;2024-01-16T00:07:04;2.70;89.20
42755;DHT22;28407;51.830;5.684;2024-01-16T00:09:08;2.70;89.20
42755;DHT22;28407;51.830;5.684;2024-01-16T00:11:11;2.70;89.20
42755;DHT22;28407;51.830;5.684;2024-01-16T00:13:14;2.70;89.10
42755;DHT22;28407;51.830;5.684;2024-01-16T00:15:15;2.70;89.20
42755;DHT22;28407;51.830;5.684;2024-01-16T00:17:19;2.70;89.10
42755;DHT22;28407;51.830;5.684;2024-01-16T00:19:20;2.70;89.20
42755;DHT22;28407;51.830;5.684;2024-01-16T00:21:21;2.60;89.20
42755;DHT22;28407;51.830;5.684;2024-01-16T00:23:21;2.70;89.20
42755;DHT22;28407;51.830;5.684;2024-01-16T00:25:22;2.70;89.20
42755;DHT22;28407;51.830;5.684;2024-01-16T00:27:23;2.70;89.20
42755;DHT22;28407;51.830;5.684;2024-01-16T00:29:26;2.70;89.20
42755;DHT22;28407;51.830;5.684;2024-01-16T00:31:27;2.70;89.20
42755;DHT22;28407;51.830;5.684;2024-01-16T00:33:34;2.70;89.20
42755;DHT22;28407;51.830;5.684;2024-01-16T00:35:34;2.70;89.10
42755;DHT22;28407;51.830;5.684;2024-01-16T00:37:36;2.70;89.10
42755;DHT22;28407;51.830;5.684;2024-01-16T00:39:42;2.70;89.10
42755;DHT22;28407;51.830;5.684;2024-01-16T00:41:46;2.70;89.10
42755;DHT22;28407;51.830;5.684;2024-01-16T00:43:46;2.70;89.20
42755;DHT22;28407;51.830;5.684;2024-01-16T00:45:47;2.70;89.10
42755;DHT22;28407;51.830;5.684;2024-01-16T00:47:48;2.70;89.20
42755;DHT22;28407;51.830;5.684;2024-01-16T00:49:49;2.70;89.20
42755;DHT22;28407;51.830;5.684;2024-01-16T00:51:50;2.60;89.10
42755;DHT22;28407;51.830;5.684;2024-01-16T00:53:50;2.70;89.20
42755;DHT22;28407;51.830;5.684;2024-01-16T00:55:51;2.70;89.10
42755;DHT22;28407;51.830;5.684;2024-01-16T00:57:57;2.70;89.10
42755;DHT22;28407;51.830;5.684;2024-01-16T00:59:58;2.70;89.10
42755;DHT22;28407;51.830;5.684;2024-01-16T01:01:59;2.70;89.10
42755;DHT22;28407;51.830;5.684;2024-01-16T01:04:00;2.70;89.10
42755;DHT22;28407;51.830;5.684;2024-01-16T01:06:01;2.70;89.10
42755;DHT22;28407;51.830;5.684;2024-01-16T01:08:04;2.70;89.10
42755;DHT22;28407;51.830;5.684;2024-01-16T01:10:05;2.70;89.10
42755;DHT22;28407;51.830;5.684;2024-01-16T01:12:06;2.70;89.00
42755;DHT22;28407;51.830;5.684;2024-01-16T01:14:08;2.70;89.00
42755;DHT22;28407;51.830;5.684;2024-01-16T01:16:14;2.70;89.00
42755;DHT22;28407;51.830;5.684;2024-01-16T01:18:15;2.70;89.00
42755;DHT22;28407;51.830;5.684;2024-01-16T01:20:16;2.70;89.00
42755;DHT22;28407;51.830;5.684;2024-01-16T01:22:18;2.70;89.00
42755;DHT22;28407;51.830;5.684;2024-01-16T01:24:18;2.70;89.00
42755;DHT22;28407;51.830;5.684;2024-01-16T01:26:19;2.70;89.00
42755;DHT22;28407;51.830;5.684;2024-01-16T01:28:20;2.70;89.00
42755;DHT22;28407;51.830;5.684;2024-01-16T01:30:20;2.70;89.00
42755;DHT22;28407;51.830;5.684;2024-01-16T01:32:21;2.70;89.00
42755;DHT22;28407;51.830;5.684;2024-01-16T01:34:25;2.70;88.90
42755;DHT22;28407;51.830;5.684;2024-01-16T01:36:28;2.70;88.90
42755;DHT22;28407;51.830;5.684;2024-01-16T01:38:29;2.70;89.00
42755;DHT22;28407;51.830;5.684;2024-01-16T01:40:29;2.70;88.90
42755;DHT22;28407;51.830;5.684;2024-01-16T01:42:33;2.70;89.60
42755;DHT22;28407;51.830;5.684;2024-01-16T01:44:33;2.80;89.00
42755;DHT22;28407;51.830;5.684;2024-01-16T01:46:34;2.70;89.00
42755;DHT22;28407;51.830;5.684;2024-01-16T01:48:36;2.70;89.00
42755;DHT22;28407;51.830;5.684;2024-01-16T01:50:37;2.70;89.00
42755;DHT22;28407;51.830;5.684;2024-01-16T01:52:39;2.70;89.00
42755;DHT22;28407;51.830;5.684;2024-01-16T01:54:41;2.80;89.10
42755;DHT22;28407;51.830;5.684;2024-01-16T01:56:44;2.80;89.10
42755;DHT22;28407;51.830;5.684;2024-01-16T01:58:46;2.80;89.00
42755;DHT22;28407;51.830;5.684;2024-01-16T02:00:47;2.80;89.00
42755;DHT22;28407;51.830;5.684;2024-01-16T02:02:48;2.80;89.00
42755;DHT22;28407;51.830;5.684;2024-01-16T02:04:54;2.80;89.00
42755;DHT22;28407;51.830;5.684;2024-01-16T02:06:55;2.80;89.00
42755;DHT22;28407;51.830;5.684;2024-01-16T02:08:57;2.80;89.00
42755;DHT22;28407;51.830;5.684;2024-01-16T02:10:58;2.80;89.00
42755;DHT22;28407;51.830;5.684;2024-01-16T02:13:04;2.80;89.00
42755;DHT22;28407;51.830;5.684;2024-01-16T02:15:05;2.80;89.00
42755;DHT22;28407;51.830;5.684;2024-01-16T02:17:06;2.80;89.00
42755;DHT22;28407;51.830;5.684;2024-01-16T02:19:07;2.80;89.00
42755;DHT22;28407;51.830;5.684;2024-01-16T02:21:08;2.80;89.00
42755;DHT22;28407;51.830;5.684;2024-01-16T02:23:08;2.80;89.00
42755;DHT22;28407;51.830;5.684;2024-01-16T02:25:13;2.80;89.00
42755;DHT22;28407;51.830;5.684;2024-01-16T02:27:13;2.80;89.00
42755;DHT22;28407;51.830;5.684;2024-01-16T02:29:17;2.70;89.00
42755;DHT22;28407;51.830;5.684;2024-01-16T02:31:18;2.80;89.00
42755;DHT22;28407;51.830;5.684;2024-01-16T02:33:19;2.80;89.00
42755;DHT22;28407;51.830;5.684;2024-01-16T02:35:22;2.80;89.00
42755;DHT22;28407;51.830;5.684;2024-01-16T02:37:23;2.80;89.00
42755;DHT22;28407;51.830;5.684;2024-01-16T02:39:24;2.80;89.00
42755;DHT22;28407;51.830;5.684;2024-01-16T02:41:25;2.80;89.00
42755;DHT22;28407;51.830;5.684;2024-01-16T02:43:26;2.80;89.00
42755;DHT22;28407;51.830;5.684;2024-01-16T02:45:27;2.80;89.10
42755;DHT22;28407;51.830;5.684;2024-01-16T02:47:30;2.80;89.00
42755;DHT22;28407;51.830;5.684;2024-01-16T02:49:31;2.80;89.00
42755;DHT22;28407;51.830;5.684;2024-01-16T02:51:33;2.70;89.00
42755;DHT22;28407;51.830;5.684;2024-01-16T02:53:34;2.70;89.00
42755;DHT22;28407;51.830;5.684;2024-01-16T02:55:34;2.70;89.10
42755;DHT22;28407;51.830;5.684;2024-01-16T02:57:38;2.70;89.00
42755;DHT22;28407;51.830;5.684;2024-01-16T02:59:45;2.80;89.10
42755;DHT22;28407;51.830;5.684;2024-01-16T03:01:46;2.80;89.10
42755;DHT22;28407;51.830;5.684;2024-01-16T03:03:49;2.80;89.10
42755;DHT22;28407;51.830;5.684;2024-01-16T03:05:50;2.80;89.00
42755;DHT22;28407;51.830;5.684;2024-01-16T03:07:53;2.80;89.00
42755;DHT22;28407;51.830;5.684;2024-01-16T03:09:54;2.80;89.00
42755;DHT22;28407;51.830;5.684;2024-01-16T03:11:55;2.70;89.00
42755;DHT22;28407;51.830;5.684;2024-01-16T03:13:55;2.80;89.00
42755;DHT22;28407;51.830;5.684;2024-01-16T03:16:09;2.80;89.00
42755;DHT22;28407;51.830;5.684;2024-01-16T03:18:14;2.80;89.00
42755;DHT22;28407;51.830;5.684;2024-01-16T03:20:15;2.80;89.00
42755;DHT22;28407;51.830;5.684;2024-01-16T03:22:16;2.80;89.00
42755;DHT22;28407;51.830;5.684;2024-01-16T03:24:16;2.80;89.00
42755;DHT22;28407;51.830;5.684;2024-01-16T03:26:17;2.80;89.00
42755;DHT22;28407;51.830;5.684;2024-01-16T03:28:17;2.70;89.00
42755;DHT22;28407;51.830;5.684;2024-01-16T03:30:18;2.70;89.00
42755;DHT22;28407;51.830;5.684;2024-01-16T03:32:22;2.70;89.10
42755;DHT22;28407;51.830;5.684;2024-01-16T03:34:23;2.80;89.10
42755;DHT22;28407;51.830;5.684;2024-01-16T03:36:27;2.80;89.10
42755;DHT22;28407;51.830;5.684;2024-01-16T03:38:28;2.80;89.00
42755;DHT22;28407;51.830;5.684;2024-01-16T03:40:29;2.80;89.00
42755;DHT22;28407;51.830;5.684;2024-01-16T03:42:34;2.80;89.00
42755;DHT22;28407;51.830;5.684;2024-01-16T03:44:38;2.80;89.00
42755;DHT22;28407;51.830;5.684;2024-01-16T03:46:38;2.80;89.00
42755;DHT22;28407;51.830;5.684;2024-01-16T03:48:39;2.80;89.00
42755;DHT22;28407;51.830;5.684;2024-01-16T03:50:39;2.80;89.00
42755;DHT22;28407;51.830;5.684;2024-01-16T03:52:44;2.80;89.00
42755;DHT22;28407;51.830;5.684;2024-01-16T03:54:44;2.80;89.00
42755;DHT22;28407;51.830;5.684;2024-01-16T03:56:45;2.80;89.00
42755;DHT22;28407;51.830;5.684;2024-01-16T03:58:47;2.80;89.00
42755;DHT22;28407;51.830;5.684;2024-01-16T04:00:48;2.80;89.00
42755;DHT22;28407;51.830;5.684;2024-01-16T04:02:51;2.80;89.00
42755;DHT22;28407;51.830;5.684;2024-01-16T04:04:54;2.80;89.00
42755;DHT22;28407;51.830;5.684;2024-01-16T04:06:55;2.80;89.00
42755;DHT22;28407;51.830;5.684;2024-01-16T04:08:58;2.80;89.00
42755;DHT22;28407;51.830;5.684;2024-01-16T04:10:59;2.80;89.00
42755;DHT22;28407;51.830;5.684;2024-01-16T04:13:00;2.80;89.00
42755;DHT22;28407;51.830;5.684;2024-01-16T04:15:02;2.80;89.00
42755;DHT22;28407;51.830;5.684;2024-01-16T04:17:02;2.80;89.00
42755;DHT22;28407;51.830;5.684;2024-01-16T04:19:03;2.80;88.90
42755;DHT22;28407;51.830;5.684;2024-01-16T04:21:03;2.80;89.00
42755;DHT22;28407;51.830;5.684;2024-01-16T04:23:04;2.80;89.00
42755;DHT22;28407;51.830;5.684;2024-01-16T04:25:05;2.90;89.00
42755;DHT22;28407;51.830;5.684;2024-01-16T04:27:06;2.80;89.00
42755;DHT22;28407;51.830;5.684;2024-01-16T04:29:07;2.90;89.00
42755;DHT22;28407;51.830;5.684;2024-01-16T04:31:11;2.90;88.90
42755;DHT22;28407;51.830;5.684;2024-01-16T04:33:17;2.90;88.90
42755;DHT22;28407;51.830;5.684;2024-01-16T04:35:29;2.90;88.90
42755;DHT22;28407;51.830;5.684;2024-01-16T04:37:30;2.90;88.90
42755;DHT22;28407;51.830;5.684;2024-01-16T04:39:30;2.90;88.90
42755;DHT22;28407;51.830;5.684;2024-01-16T04:41:31;2.90;88.90
42755;DHT22;28407;51.830;5.684;2024-01-16T04:43:32;2.90;88.90
42755;DHT22;28407;51.830;5.684;2024-01-16T04:45:33;2.90;88.90
42755;DHT22;28407;51.830;5.684;2024-01-16T04:47:33;2.90;88.90
42755;DHT22;28407;51.830;5.684;2024-01-16T04:49:34;2.90;88.90
42755;DHT22;28407;51.830;5.684;2024-01-16T04:51:35;2.90;88.90
42755;DHT22;28407;51.830;5.684;2024-01-16T04:53:35;2.90;89.00
42755;DHT22;28407;51.830;5.684;2024-01-16T04:55:36;2.90;88.90
42755;DHT22;28407;51.830;5.684;2024-01-16T04:57:37;2.90;88.90
42755;DHT22;28407;51.830;5.684;2024-01-16T04:59:38;2.90;88.90
42755;DHT22;28407;51.830;5.684;2024-01-16T05:01:38;2.90;88.90
42755;DHT22;28407;51.830;5.684;2024-01-16T05:03:39;2.90;88.90
42755;DHT22;28407;51.830;5.684;2024-01-16T05:05:40;2.90;88.90
42755;DHT22;28407;51.830;5.684;2024-01-16T05:07:44;2.80;88.80
42755;DHT22;28407;51.830;5.684;2024-01-16T05:09:45;2.80;88.80
42755;DHT22;28407;51.830;5.684;2024-01-16T05:11:46;2.80;88.90
42755;DHT22;28407;51.830;5.684;2024-01-16T05:13:46;2.80;88.90
42755;DHT22;28407;51.830;5.684;2024-01-16T05:15:50;2.80;89.00
42755;DHT22;28407;51.830;5.684;2024-01-16T05:17:51;2.80;89.00
42755;DHT22;28407;51.830;5.684;2024-01-16T05:19:51;2.80;89.00
42755;DHT22;28407;51.830;5.684;2024-01-16T05:21:52;2.70;89.00
42755;DHT22;28407;51.830;5.684;2024-01-16T05:23:53;2.80;89.00
42755;DHT22;28407;51.830;5.684;2024-01-16T05:25:53;2.70;89.00
42755;DHT22;28407;51.830;5.684;2024-01-16T05:27:54;2.80;89.00
42755;DHT22;28407;51.830;5.684;2024-01-16T05:29:54;2.70;89.00
42755;DHT22;28407;51.830;5.684;2024-01-16T05:31:55;2.70;89.00
42755;DHT22;28407;51.830;5.684;2024-01-16T05:33:58;2.70;89.00
42755;DHT22;28407;51.830;5.684;2024-01-16T05:35:59;2.70;89.00
42755;DHT22;28407;51.830;5.684;2024-01-16T05:38:00;2.80;89.10
42755;DHT22;28407;51.830;5.684;2024-01-16T05:40:00;2.80;89.00
42755;DHT22;28407;51.830;5.684;2024-01-16T05:42:03;2.80;89.00
42755;DHT22;28407;51.830;5.684;2024-01-16T05:44:04;2.70;89.60
42755;DHT22;28407;51.830;5.684;2024-01-16T05:46:09;2.70;89.00
42755;DHT22;28407;51.830;5.684;2024-01-16T05:48:10;2.80;89.10
42755;DHT22;28407;51.830;5.684;2024-01-16T05:50:11;2.80;89.00
42755;DHT22;28407;51.830;5.684;2024-01-16T05:52:12;2.70;89.00
42755;DHT22;28407;51.830;5.684;2024-01-16T05:54:12;2.80;89.00
42755;DHT22;28407;51.830;5.684;2024-01-16T05:56:13;2.80;89.00
42755;DHT22;28407;51.830;5.684;2024-01-16T05:58:14;2.80;89.00
42755;DHT22;28407;51.830;5.684;2024-01-16T06:00:15;2.70;89.00
42755;DHT22;28407;51.830;5.684;2024-01-16T06:02:18;2.70;89.00
42755;DHT22;28407;51.830;5.684;2024-01-16T06:04:24;2.70;89.00
42755;DHT22;28407;51.830;5.684;2024-01-16T06:06:25;2.70;89.00
42755;DHT22;28407;51.830;5.684;2024-01-16T06:08:26;2.70;89.10
42755;DHT22;28407;51.830;5.684;2024-01-16T06:10:33;2.70;89.10
42755;DHT22;28407;51.830;5.684;2024-01-16T06:12:34;2.80;89.10
42755;DHT22;28407;51.830;5.684;2024-01-16T06:14:38;2.70;89.00
42755;DHT22;28407;51.830;5.684;2024-01-16T06:16:38;2.80;89.00
42755;DHT22;28407;51.830;5.684;2024-01-16T06:18:39;2.70;89.00
42755;DHT22;28407;51.830;5.684;2024-01-16T06:20:40;2.70;89.10
42755;DHT22;28407;51.830;5.684;2024-01-16T06:22:40;2.70;89.10
42755;DHT22;28407;51.830;5.684;2024-01-16T06:24:41;2.70;89.20
42755;DHT22;28407;51.830;5.684;2024-01-16T06:26:42;2.70;89.10
42755;DHT22;28407;51.830;5.684;2024-01-16T06:28:42;2.70;89.10
42755;DHT22;28407;51.830;5.684;2024-01-16T06:30:43;2.70;89.10
42755;DHT22;28407;51.830;5.684;2024-01-16T06:32:44;2.70;89.10
42755;DHT22;28407;51.830;5.684;2024-01-16T06:34:45;2.80;89.20
42755;DHT22;28407;51.830;5.684;2024-01-16T06:36:45;2.80;89.10
42755;DHT22;28407;51.830;5.684;2024-01-16T06:38:46;2.80;89.10
42755;DHT22;28407;51.830;5.684;2024-01-16T06:40:47;2.80;89.20
42755;DHT22;28407;51.830;5.684;2024-01-16T06:42:47;2.80;89.10
42755;DHT22;28407;51.830;5.684;2024-01-16T06:44:48;2.80;89.10
42755;DHT22;28407;51.830;5.684;2024-01-16T06:46:48;2.80;89.10
42755;DHT22;28407;51.830;5.684;2024-01-16T06:48:52;2.80;89.10
42755;DHT22;28407;51.830;5.684;2024-01-16T06:50:55;2.80;89.10
42755;DHT22;28407;51.830;5.684;2024-01-16T06:52:59;2.80;89.10
42755;DHT22;28407;51.830;5.684;2024-01-16T06:54:59;2.80;89.00
42755;DHT22;28407;51.830;5.684;2024-01-16T06:57:00;2.80;89.00
42755;DHT22;28407;51.830;5.684;2024-01-16T06:59:01;2.80;89.10
42755;DHT22;28407;51.830;5.684;2024-01-16T07:01:04;2.80;89.10
42755;DHT22;28407;51.830;5.684;2024-01-16T07:03:04;2.80;89.10
42755;DHT22;28407;51.830;5.684;2024-01-16T07:05:08;2.80;89.10
42755;DHT22;28407;51.830;5.684;2024-01-16T07:07:09;2.80;89.10
42755;DHT22;28407;51.830;5.684;2024-01-16T07:09:10;2.80;89.10
42755;DHT22;28407;51.830;5.684;2024-01-16T07:11:13;2.80;89.20
42755;DHT22;28407;51.830;5.684;2024-01-16T07:13:14;2.80;89.10
42755;DHT22;28407;51.830;5.684;2024-01-16T07:15:17;2.80;89.10
42755;DHT22;28407;51.830;5.684;2024-01-16T07:17:18;2.80;89.20
42755;DHT22;28407;51.830;5.684;2024-01-16T07:19:19;2.80;89.20
42755;DHT22;28407;51.830;5.684;2024-01-16T07:21:20;2.80;89.20
42755;DHT22;28407;51.830;5.684;2024-01-16T07:23:21;2.80;89.10
42755;DHT22;28407;51.830;5.684;2024-01-16T07:25:22;2.80;89.10
42755;DHT22;28407;51.830;5.684;2024-01-16T07:27:25;2.80;89.20
42755;DHT22;28407;51.830;5.684;2024-01-16T07:29:26;2.70;89.00
42755;DHT22;28407;51.830;5.684;2024-01-16T07:31:27;2.70;89.20
42755;DHT22;28407;51.830;5.684;2024-01-16T07:33:27;2.70;89.20
42755;DHT22;28407;51.830;5.684;2024-01-16T07:35:28;2.70;89.20
42755;DHT22;28407;51.830;5.684;2024-01-16T07:37:28;2.60;89.20
42755;DHT22;28407;51.830;5.684;2024-01-16T07:39:29;2.60;89.30
42755;DHT22;28407;51.830;5.684;2024-01-16T07:41:30;2.60;89.30
42755;DHT22;28407;51.830;5.684;2024-01-16T07:43:31;2.60;89.30
42755;DHT22;28407;51.830;5.684;2024-01-16T07:45:31;2.50;89.20
42755;DHT22;28407;51.830;5.684;2024-01-16T07:47:33;2.50;89.40
42755;DHT22;28407;51.830;5.684;2024-01-16T07:49:34;2.50;89.40
42755;DHT22;28407;51.830;5.684;2024-01-16T07:51:35;2.50;90.00
42755;DHT22;28407;51.830;5.684;2024-01-16T07:53:41;2.50;89.40
42755;DHT22;28407;51.830;5.684;2024-01-16T07:55:41;2.40;89.30
42755;DHT22;28407;51.830;5.684;2024-01-16T07:57:42;2.40;89.40
42755;DHT22;28407;51.830;5.684;2024-01-16T07:59:43;2.40;89.40
42755;DHT22;28407;51.830;5.684;2024-01-16T08:01:43;2.40;89.40
42755;DHT22;28407;51.830;5.684;2024-01-16T08:03:44;2.40;89.40
42755;DHT22;28407;51.830;5.684;2024-01-16T08:05:45;2.40;89.50
42755;DHT22;28407;51.830;5.684;2024-01-16T08:07:45;2.40;89.40
42755;DHT22;28407;51.830;5.684;2024-01-16T08:09:49;2.40;89.30
42755;DHT22;28407;51.830;5.684;2024-01-16T08:11:50;2.40;89.30
42755;DHT22;28407;51.830;5.684;2024-01-16T08:13:50;2.40;89.40
42755;DHT22;28407;51.830;5.684;2024-01-16T08:15:51;2.40;89.40
42755;DHT22;28407;51.830;5.684;2024-01-16T08:17:57;2.40;89.30
42755;DHT22;28407;51.830;5.684;2024-01-16T08:19:58;2.40;89.30
42755;DHT22;28407;51.830;5.684;2024-01-16T08:21:59;2.40;89.20
42755;DHT22;28407;51.830;5.684;2024-01-16T08:23:59;2.40;89.20
42755;DHT22;28407;51.830;5.684;2024-01-16T08:26:00;2.40;89.10
42755;DHT22;28407;51.830;5.684;2024-01-16T08:28:03;2.50;89.20
42755;DHT22;28407;51.830;5.684;2024-01-16T08:30:05;2.40;89.10
42755;DHT22;28407;51.830;5.684;2024-01-16T08:32:07;2.40;89.10
42755;DHT22;28407;51.830;5.684;2024-01-16T08:34:08;2.50;89.10
42755;DHT22;28407;51.830;5.684;2024-01-16T08:36:08;2.50;89.00
42755;DHT22;28407;51.830;5.684;2024-01-16T08:38:12;2.40;89.00
42755;DHT22;28407;51.830;5.684;2024-01-16T08:40:15;2.40;89.00
42755;DHT22;28407;51.830;5.684;2024-01-16T08:42:16;2.50;89.10
42755;DHT22;28407;51.830;5.684;2024-01-16T08:44:19;2.40;88.90
42755;DHT22;28407;51.830;5.684;2024-01-16T08:46:20;2.50;89.10
42755;DHT22;28407;51.830;5.684;2024-01-16T08:48:24;2.50;89.00
42755;DHT22;28407;51.830;5.684;2024-01-16T08:50:24;2.40;88.90
42755;DHT22;28407;51.830;5.684;2024-01-16T08:52:25;2.40;88.90
42755;DHT22;28407;51.830;5.684;2024-01-16T08:54:26;2.50;88.90
42755;DHT22;28407;51.830;5.684;2024-01-16T08:56:27;2.40;88.90
42755;DHT22;28407;51.830;5.684;2024-01-16T08:58:30;2.40;88.90
42755;DHT22;28407;51.830;5.684;2024-01-16T09:00:33;2.40;88.90
42755;DHT22;28407;51.830;5.684;2024-01-16T09:02:34;2.40;89.50
42755;DHT22;28407;51.830;5.684;2024-01-16T09:04:35;2.50;88.90
42755;DHT22;28407;51.830;5.684;2024-01-16T09:06:38;2.50;88.80
42755;DHT22;28407;51.830;5.684;2024-01-16T09:08:39;2.50;88.80
42755;DHT22;28407;51.830;5.684;2024-01-16T09:10:39;2.50;88.80
42755;DHT22;28407;51.830;5.684;2024-01-16T09:12:40;2.50;88.80
42755;DHT22;28407;51.830;5.684;2024-01-16T09:14:41;2.50;88.80
42755;DHT22;28407;51.830;5.684;2024-01-16T09:16:42;2.50;88.70
42755;DHT22;28407;51.830;5.684;2024-01-16T09:18:45;2.50;88.70
42755;DHT22;28407;51.830;5.684;2024-01-16T09:20:49;2.50;88.70
42755;DHT22;28407;51.830;5.684;2024-01-16T09:22:50;2.50;88.60
42755;DHT22;28407;51.830;5.684;2024-01-16T09:24:50;2.50;88.60
42755;DHT22;28407;51.830;5.684;2024-01-16T09:26:51;2.50;88.60
42755;DHT22;28407;51.830;5.684;2024-01-16T09:28:54;2.60;88.50
42755;DHT22;28407;51.830;5.684;2024-01-16T09:30:55;2.60;88.50
42755;DHT22;28407;51.830;5.684;2024-01-16T09:32:59;2.50;88.50
42755;DHT22;28407;51.830;5.684;2024-01-16T09:35:03;2.60;88.60
42755;DHT22;28407;51.830;5.684;2024-01-16T09:37:12;2.60;88.40
42755;DHT22;28407;51.830;5.684;2024-01-16T09:39:15;2.60;88.40
42755;DHT22;28407;51.830;5.684;2024-01-16T09:41:18;2.60;88.40
42755;DHT22;28407;51.830;5.684;2024-01-16T09:43:27;2.60;88.40
42755;DHT22;28407;51.830;5.684;2024-01-16T09:45:34;2.60;88.50
42755;DHT22;28407;51.830;5.684;2024-01-16T09:47:40;2.60;88.40
42755;DHT22;28407;51.830;5.684;2024-01-16T09:49:42;2.60;88.40
42755;DHT22;28407;51.830;5.684;2024-01-16T09:51:43;2.60;88.40
42755;DHT22;28407;51.830;5.684;2024-01-16T09:53:47;2.60;88.40
42755;DHT22;28407;51.830;5.684;2024-01-16T09:55:51;2.60;88.30
42755;DHT22;28407;51.830;5.684;2024-01-16T09:57:56;2.60;88.30
42755;DHT22;28407;51.830;5.684;2024-01-16T09:59:57;2.60;88.20
42755;DHT22;28407;51.830;5.684;2024-01-16T10:02:01;2.70;88.20
42755;DHT22;28407;51.830;5.684;2024-01-16T10:04:08;2.60;88.00
42755;DHT22;28407;51.830;5.684;2024-01-16T10:06:12;2.60;88.10
42755;DHT22;28407;51.830;5.684;2024-01-16T10:08:16;2.60;88.10
42755;DHT22;28407;51.830;5.684;2024-01-16T10:10:17;2.60;88.00
42755;DHT22;28407;51.830;5.684;2024-01-16T10:12:18;2.60;88.10
42755;DHT22;28407;51.830;5.684;2024-01-16T10:14:19;2.60;88.10
42755;DHT22;28407;51.830;5.684;2024-01-16T10:16:23;2.50;88.00
42755;DHT22;28407;51.830;5.684;2024-01-16T10:18:28;2.60;88.10
42755;DHT22;28407;51.830;5.684;2024-01-16T10:20:36;2.60;88.10
42755;DHT22;28407;51.830;5.684;2024-01-16T10:22:36;2.60;88.10
42755;DHT22;28407;51.830;5.684;2024-01-16T10:24:37;2.60;88.00
42755;DHT22;28407;51.830;5.684;2024-01-16T10:26:38;2.60;87.90
42755;DHT22;28407;51.830;5.684;2024-01-16T10:28:39;2.70;87.90
42755;DHT22;28407;51.830;5.684;2024-01-16T10:30:43;2.70;87.70
42755;DHT22;28407;51.830;5.684;2024-01-16T10:32:44;2.70;87.80
42755;DHT22;28407;51.830;5.684;2024-01-16T10:34:45;2.70;87.80
42755;DHT22;28407;51.830;5.684;2024-01-16T10:36:45;2.70;87.80
42755;DHT22;28407;51.830;5.684;2024-01-16T10:38:46;2.70;87.80
42755;DHT22;28407;51.830;5.684;2024-01-16T10:41:10;2.70;87.80
42755;DHT22;28407;51.830;5.684;2024-01-16T10:43:11;2.70;87.70
42755;DHT22;28407;51.830;5.684;2024-01-16T10:45:18;2.60;87.70
42755;DHT22;28407;51.830;5.684;2024-01-16T10:47:22;2.60;87.60
42755;DHT22;28407;51.830;5.684;2024-01-16T10:49:23;2.60;87.70
42755;DHT22;28407;51.830;5.684;2024-01-16T10:51:27;2.60;87.70
42755;DHT22;28407;51.830;5.684;2024-01-16T10:53:29;2.60;87.60
42755;DHT22;28407;51.830;5.684;2024-01-16T10:55:43;2.60;87.60
42755;DHT22;28407;51.830;5.684;2024-01-16T10:57:46;2.60;87.60
42755;DHT22;28407;51.830;5.684;2024-01-16T11:00:03;2.60;87.60
42755;DHT22;28407;51.830;5.684;2024-01-16T11:02:09;2.70;87.60
42755;DHT22;28407;51.830;5.684;2024-01-16T11:04:11;2.70;87.60
42755;DHT22;28407;51.830;5.684;2024-01-16T11:06:12;2.80;87.50
42755;DHT22;28407;51.830;5.684;2024-01-16T11:08:14;2.80;87.40
42755;DHT22;28407;51.830;5.684;2024-01-16T11:10:17;2.80;87.40
42755;DHT22;28407;51.830;5.684;2024-01-16T11:12:18;2.80;87.30
42755;DHT22;28407;51.830;5.684;2024-01-16T11:14:22;2.90;87.30
42755;DHT22;28407;51.830;5.684;2024-01-16T11:16:23;2.90;87.20
42755;DHT22;28407;51.830;5.684;2024-01-16T11:18:24;2.90;87.10
42755;DHT22;28407;51.830;5.684;2024-01-16T11:20:25;3.00;87.10
42755;DHT22;28407;51.830;5.684;2024-01-16T11:22:27;3.00;87.10
42755;DHT22;28407;51.830;5.684;2024-01-16T11:24:29;3.00;87.00
42755;DHT22;28407;51.830;5.684;2024-01-16T11:26:31;3.00;86.90
42755;DHT22;28407;51.830;5.684;2024-01-16T11:28:36;3.10;86.90
42755;DHT22;28407;51.830;5.684;2024-01-16T11:30:37;3.10;86.80
42755;DHT22;28407;51.830;5.684;2024-01-16T11:32:41;3.10;86.80
42755;DHT22;28407;51.830;5.684;2024-01-16T11:38:46;3.10;86.80
42755;DHT22;28407;51.830;5.684;2024-01-16T11:40:47;3.10;86.80
42755;DHT22;28407;51.830;5.684;2024-01-16T11:42:54;3.10;86.70
42755;DHT22;28407;51.830;5.684;2024-01-16T11:44:55;3.20;86.70
42755;DHT22;28407;51.830;5.684;2024-01-16T11:47:02;3.20;87.30
42755;DHT22;28407;51.830;5.684;2024-01-16T11:49:03;3.20;86.60
42755;DHT22;28407;51.830;5.684;2024-01-16T11:51:21;3.20;86.50
42755;DHT22;28407;51.830;5.684;2024-01-16T11:55:48;3.20;86.50
42755;DHT22;28407;51.830;5.684;2024-01-16T12:00:06;3.30;86.50
42755;DHT22;28407;51.830;5.684;2024-01-16T12:02:20;3.30;86.40
42755;DHT22;28407;51.830;5.684;2024-01-16T12:04:21;3.30;86.50
42755;DHT22;28407;51.830;5.684;2024-01-16T12:06:22;3.30;86.50
42755;DHT22;28407;51.830;5.684;2024-01-16T12:08:24;3.30;86.40
42755;DHT22;28407;51.830;5.684;2024-01-16T12:10:25;3.30;86.30
42755;DHT22;28407;51.830;5.684;2024-01-16T12:12:26;3.30;86.30
42755;DHT22;28407;51.830;5.684;2024-01-16T12:14:27;3.30;86.20
42755;DHT22;28407;51.830;5.684;2024-01-16T12:16:28;3.30;86.30
42755;DHT22;28407;51.830;5.684;2024-01-16T12:18:29;3.30;86.30
42755;DHT22;28407;51.830;5.684;2024-01-16T12:20:30;3.30;86.20
42755;DHT22;28407;51.830;5.684;2024-01-16T12:23:39;3.40;85.60
42755;DHT22;28407;51.830;5.684;2024-01-16T12:25:40;3.40;85.40
42755;DHT22;28407;51.830;5.684;2024-01-16T12:27:41;3.40;85.50
42755;DHT22;28407;51.830;5.684;2024-01-16T12:29:42;3.40;85.60
42755;DHT22;28407;51.830;5.684;2024-01-16T12:31:42;3.40;85.60
42755;DHT22;28407;51.830;5.684;2024-01-16T12:33:44;3.40;85.50
42755;DHT22;28407;51.830;5.684;2024-01-16T12:35:47;3.50;85.50
42755;DHT22;28407;51.830;5.684;2024-01-16T12:37:59;3.50;85.40
42755;DHT22;28407;51.830;5.684;2024-01-16T12:40:03;3.60;85.40
42755;DHT22;28407;51.830;5.684;2024-01-16T12:42:06;3.60;85.30
42755;DHT22;28407;51.830;5.684;2024-01-16T12:44:07;3.70;85.10
42755;DHT22;28407;51.830;5.684;2024-01-16T12:46:11;3.80;85.00
42755;DHT22;28407;51.830;5.684;2024-01-16T12:48:12;3.80;85.50
42755;DHT22;28407;51.830;5.684;2024-01-16T12:50:19;3.80;84.80
42755;DHT22;28407;51.830;5.684;2024-01-16T12:52:21;3.90;84.70
42755;DHT22;28407;51.830;5.684;2024-01-16T12:54:24;3.90;84.60
42755;DHT22;28407;51.830;5.684;2024-01-16T12:56:28;4.00;84.50
42755;DHT22;28407;51.830;5.684;2024-01-16T12:58:36;4.00;84.30
42755;DHT22;28407;51.830;5.684;2024-01-16T13:00:36;4.00;84.20
42755;DHT22;28407;51.830;5.684;2024-01-16T13:02:37;4.00;84.10
42755;DHT22;28407;51.830;5.684;2024-01-16T13:04:38;4.00;84.10
42755;DHT22;28407;51.830;5.684;2024-01-16T13:06:39;4.00;84.10
42755;DHT22;28407;51.830;5.684;2024-01-16T13:08:44;4.00;84.00
42755;DHT22;28407;51.830;5.684;2024-01-16T13:10:45;4.00;84.00
42755;DHT22;28407;51.830;5.684;2024-01-16T13:12:46;3.90;84.00